• Join FlightAware (Why Join?)
  • Login
  • US Flag 
10:48AM EDT


 

Airport Tracker/Info


-or-


 

Live Flight TrackerFlight Track Log ✈ AAY800 ✈ 20-Apr-2014 ✈ KPIE - KTOL

Flight Track Log - Related Links

Times and Time Zones

All times are in EDT time to prevent confusion due to time zone crossing. See the AAY800 flight status page for this flight to view local times or setup timezone preferences in your user account.

Time Position Orientation Groundspeed Altitude Reporting Facility
EDT Latitude Longitude Course Direction KTS MPH feet Rate Location/Type
05:27PM 27.9167 -82.6833 360° North 205 236 500  Level Tampa TRACON
05:28PM 27.9500 -82.6833 360° North 156 180 1,800 1,740 Climbing Tampa TRACON
05:29PM 28.0000 -82.6667 16° North 227 261 3,400 2,160 Climbing Tampa TRACON
05:30PM 28.0667 -82.6500 12° North 277 319 6,200 2,700 Climbing Tampa TRACON
05:31PM 28.1500 -82.6500 360° North 275 316 9,100 2,340 Climbing Tampa TRACON
05:32PM 28.2333 -82.6333 10° North 297 342 11,200 1,080 Climbing Tampa TRACON
05:33PM 28.3814 -82.6142 North 360 414 12,100 1,260 Climbing Jacksonville Center
05:34PM 28.4897 -82.6256 355° North 365 420 14,600 1,740 Climbing Jacksonville Center
05:35PM 28.5878 -82.6419 352° North 365 420 15,600 1,440 Climbing Jacksonville Center
05:36PM 28.6303 -82.6462 354° North 366 421 16,600 2,160 Climbing FlightAware ADS-B (KMCO)
05:36PM 28.6903 -82.6558 353° North 365 420 17,800 1,680 Climbing Jacksonville Center
05:37PM 28.7800 -82.6653 355° North 365 420 19,400 1,740 Climbing Jacksonville Center
05:38PM 28.8864 -82.6767 355° North 370 426 21,300 1,800 Climbing Jacksonville Center
05:39PM 28.9928 -82.6883 355° North 370 426 23,000 1,500 Climbing Jacksonville Center
05:40PM 29.1036 -82.6978 356° North 380 437 24,300 1,320 Climbing Jacksonville Center
05:41PM 29.2183 -82.6856 North 392 451 25,700 1,200 Climbing Jacksonville Center
05:49PM 30.1827 -82.5867 North 424 488 35,100 1,020 Climbing FlightAware ADS-B (KMCO)
05:50PM 30.3058 -82.5775 North 430 495 35,000 -60 Descending Jacksonville Center
05:51PM 30.4269 -82.5625 North 430 495 35,000  Level Jacksonville Center
05:52PM 30.5481 -82.5525 North 425 489 35,000  Level Jacksonville Center
05:53PM 30.6692 -82.5497 North 425 489 35,000  Level Jacksonville Center
05:54PM 30.8006 -82.5444 North 425 489 35,000 360 Level Jacksonville Center
05:55PM 30.9194 -82.5367 North 420 483 35,800 900 Climbing Jacksonville Center
05:56PM 31.0386 -82.5314 North 420 483 36,800 600 Climbing Jacksonville Center
05:57PM 31.1575 -82.5283 North 420 483 37,000 60 Climbing Jacksonville Center
05:58PM 31.2767 -82.5256 North 420 483 37,000  Level Jacksonville Center
05:59PM 31.3808 -82.5153 North 420 483 37,000  Level Jacksonville Center
06:01PM 31.5828 -82.5250 358° North 407 468 37,100  Climbing Atlanta Center
06:02PM 31.6939 -82.5622 344° North 407 468 37,100  Level Atlanta Center
06:03PM 31.8050 -82.5969 345° North 407 468 37,100  Level Atlanta Center
06:04PM 31.9161 -82.6369 343° North 412 474 37,100 -60 Level Atlanta Center
06:05PM 32.0250 -82.6744 344° North 412 474 37,000  Descending Atlanta Center
06:06PM 32.1339 -82.7069 346° North 405 466 37,100  Climbing Atlanta Center
06:07PM 32.2469 -82.7422 345° North 405 466 37,000 -60 Descending Atlanta Center
06:08PM 32.3536 -82.7750 345° North 405 466 37,000  Level Atlanta Center
06:09PM 32.4647 -82.8056 347° North 400 460 37,000  Level Atlanta Center
06:10PM 32.5694 -82.8408 344° North 394 453 37,000  Level Atlanta Center
06:11PM 32.6803 -82.8764 345° North 400 460 37,000  Level Atlanta Center
06:12PM 32.7914 -82.9097 346° North 400 460 37,100  Climbing Atlanta Center
06:13PM 32.9022 -82.9403 347° North 400 460 37,100 -60 Level Atlanta Center
06:14PM 33.0111 -82.9736 346° North 400 460 37,000 -60 Descending Atlanta Center
06:15PM 33.1242 -83.0119 344° North 405 466 37,000  Level Atlanta Center
06:16PM 33.2456 -83.0478 346° North 400 460 37,000  Level Atlanta Center
06:17PM 33.3564 -83.0814 346° North 400 460 37,000  Level Atlanta Center
06:18PM 33.4653 -83.1150 346° North 400 460 37,100  Climbing Atlanta Center
06:19PM 33.5803 -83.1486 346° North 405 466 37,100  Level Atlanta Center
06:25PM 34.2203 -83.3498 345° North 401 461 37,100  Level FlightAware ADS-B (KDZJ)
06:25PM 34.2826 -83.3696 345° North 403 464 37,100 -120 Level FlightAware ADS-B (KDZJ)
06:26PM 34.3682 -83.3967 345° North 404 465 37,000 -120 Descending FlightAware ADS-B (KDZJ)
06:27PM 34.4428 -83.4204 345° North 404 465 37,000 60 Level FlightAware ADS-B (KDZJ)
06:28PM 34.5502 -83.4547 345° North 413 475 37,100 60 Climbing FlightAware ADS-B (KDZJ)
06:28PM 34.6204 -83.4772 345° North 413 475 37,100  Level FlightAware ADS-B (KDZJ)
06:29PM 34.6978 -83.5020 345° North 414 476 37,100  Level FlightAware ADS-B (KDZJ)
06:30PM 34.7770 -83.5272 345° North 414 476 37,100  Level FlightAware ADS-B (KDZJ)
06:30PM 34.8413 -83.5478 345° North 414 476 37,100  Level FlightAware ADS-B (KDZJ)
06:31PM 34.9246 -83.5747 345° North 414 476 37,100  Level FlightAware ADS-B (KDZJ)
06:32PM 35.0007 -83.5993 345° North 415 478 37,100  Level FlightAware ADS-B (KDZJ)
06:32PM 35.0743 -83.6231 345° North 414 476 37,100 420 Level FlightAware ADS-B (KDZJ)
06:33PM 35.1419 -83.6450 345° North 404 465 37,700 780 Climbing FlightAware ADS-B (KDZJ)
06:34PM 35.2142 -83.6685 345° North 413 475 38,100 240 Climbing FlightAware ADS-B (KDZJ)
06:34PM 35.2955 -83.6950 345° North 413 475 38,100  Level FlightAware ADS-B (KDZJ)
06:35PM 35.3713 -83.7194 345° North 418 481 38,100  Level FlightAware ADS-B (KDZJ)
06:36PM 35.4825 -83.7557 345° North 416 479 38,100  Level FlightAware ADS-B (KDZJ)
06:37PM 35.5471 -83.7770 345° North 416 479 38,100 -120 Level FlightAware ADS-B (KDZJ)
06:37PM 35.5742 -83.7886 345° North 416 479 38,000  Descending Atlanta Center
06:38PM 35.6867 -83.8239 346° North 416 479 38,100  Climbing Atlanta Center
06:44PM 36.3604 -83.9617 353° North 422 486 38,100  Level FlightAware ADS-B (KMDQ)
06:45PM 36.4200 -83.9705 353° North 422 486 38,100 -60 Level FlightAware ADS-B (KMDQ)
06:46PM 36.5569 -83.9903 353° North 419 482 38,000  Descending Indianapolis Center
06:52PM 37.2612 -84.0966 353° North 433 498 38,100  Climbing FlightAware ADS-B (KCVG)
06:52PM 37.3164 -84.1050 353° North 433 498 38,100  Level FlightAware ADS-B (KCVG)
06:53PM 37.4128 -84.1206 353° North 431 496 38,100 -60 Level Indianapolis Center
06:54PM 37.5336 -84.1375 354° North 432 497 38,000  Descending Indianapolis Center
07:00PM 38.2765 -84.2525 353° North 443 510 38,100  Climbing FlightAware ADS-B (KPMH)
07:01PM 38.3130 -84.2582 353° North 445 512 38,100 -420 Level FlightAware ADS-B (KPMH)
07:03PM 38.6098 -84.3037 356° North 441 507 37,100 -420 Descending FlightAware ADS-B (KPMH)
07:03PM 38.6437 -84.3055 North 441 507 37,100  Level FlightAware ADS-B (KPMH)
07:04PM 38.7266 -84.2986 North 446 513 37,100  Level FlightAware ADS-B (KPMH)
07:04PM 38.7889 -84.2884 North 445 512 37,100 -120 Level FlightAware ADS-B (KPMH)
07:05PM 38.8546 -84.2780 North 445 512 37,000 -480 Descending FlightAware ADS-B (KPMH)
07:05PM 38.9180 -84.2679 North 439 505 36,600 -900 Descending FlightAware ADS-B (KPMH)
07:06PM 38.9723 -84.2592 North 444 511 36,100 -1,020 Descending FlightAware ADS-B (KCVG)
07:06PM 39.0292 -84.2501 North 441 507 35,600 -900 Descending FlightAware ADS-B (KPMH)
07:07PM 39.0925 -84.2398 North 445 512 35,200 -900 Descending FlightAware ADS-B (KPMH)
07:07PM 39.1758 -84.2265 North 447 514 34,600 -1,020 Descending FlightAware ADS-B (KPMH)
07:08PM 39.2429 -84.2156 North 450 518 34,100 -1,080 Descending FlightAware ADS-B (KPMH)
07:09PM 39.3233 -84.2026 North 453 521 33,400 -1,020 Descending FlightAware ADS-B (KPMH)
07:09PM 39.3899 -84.1917 North 453 521 32,900 -1,020 Descending FlightAware ADS-B (KPMH)
07:10PM 39.4719 -84.1784 North 451 519 32,200 -900 Descending FlightAware ADS-B (KPMH)
07:11PM 39.5572 -84.1653 North 451 519 31,600 -900 Descending Indianapolis Center
07:12PM 39.6797 -84.1444 North 449 517 30,600 -1,020 Descending Indianapolis Center
07:13PM 39.7989 -84.1247 North 436 502 29,600 -1,260 Descending Indianapolis Center
07:14PM 39.9164 -84.1058 North 429 494 28,100 -1,800 Descending Indianapolis Center
07:15PM 40.0297 -84.0872 North 417 480 25,900 -1,980 Descending Indianapolis Center
07:16PM 40.1406 -84.0692 North 405 466 24,100 -960 Descending Indianapolis Center
07:17PM 40.2489 -84.0508 North 397 457 24,000 -1,200 Descending Indianapolis Center
07:18PM 40.3803 -84.0142 12° North 399 459 21,600 -2,340 Descending Indianapolis Center
07:19PM 40.4900 -83.9744 15° North 406 467 19,300 -2,220 Descending Indianapolis Center
07:20PM 40.5961 -83.9383 14° North 400 460 17,200 -2,040 Descending Indianapolis Center
07:21PM 40.6964 -83.9033 15° North 381 438 15,100 -1,080 Descending Indianapolis Center
07:22PM 40.7925 -83.8700 15° North 365 420 15,000 -300 Descending Indianapolis Center
07:23PM 40.8853 -83.8372 15° North 350 403 14,600 -1,020 Descending Indianapolis Center
07:24PM 40.9797 -83.8047 15° North 350 403 13,000 -1,560 Descending Indianapolis Center
07:25PM 41.0872 -83.7664 15° North 340 391 11,500 -1,200 Descending Indianapolis Center
07:26PM 41.1761 -83.7361 14° North 332 382 10,500 -780 Descending Indianapolis Center
07:27PM 41.2539 -83.7075 15° North 299 344 10,000 -900 Descending Indianapolis Center
07:28PM 41.3267 -83.6900 10° North 271 312 8,700 -1,200 Descending Indianapolis Center
07:29PM 41.3981 -83.6850 North 258 297 7,600 -1,020 Descending Indianapolis Center
07:30PM 41.4594 -83.6717 North 230 265 6,700 -1,200 Descending Indianapolis Center
07:31PM 41.5172 -83.6667 North 214 246 5,100 -1,440 Descending Indianapolis Center
07:32PM 41.5694 -83.6656 North 203 234 3,800 -1,380 Descending Indianapolis Center
07:34PM 41.6075 -83.7122 317° Northwest 163 188 2,000 -900 Descending Cleveland Center
07:35PM 41.6125 -83.7722 276° West 157 181 1,800 -240 Descending Cleveland Center